Time;durP1;ratioP1;P1;durP2;ratioP2;P2;SDS_P1;SDS_P2;PMS_P1;PMS_P2;Temp;Humidity;BMP_temperature;BMP_pressure;BME280_temperature;BME280_humidity;BME280_pressure;Samples;Min_cycle;Max_cycle;Signal;HPM_P1;HPM_P2
2023/09/24 00:01:04;;;;;;;;;23.25;17.75;;;;;14.50;100.00;102129.66;5057992;28;45456;-72
2023/09/24 00:03:31;;;;;;;;;22.25;22.25;;;;;14.48;100.00;102127.84;5057077;28;45382;-75
2023/09/24 00:05:58;;;;;;;;;30.00;24.75;;;;;14.45;100.00;102130.44;5062040;27;45370;-73
2023/09/24 00:08:23;;;;;;;;;25.75;23.75;;;;;14.41;100.00;102129.47;5057762;28;45296;-75
2023/09/24 00:10:50;;;;;;;;;29.50;26.75;;;;;14.40;100.00;102136.56;5065906;27;62804;-72
2023/09/24 00:13:17;;;;;;;;;25.00;22.25;;;;;14.40;100.00;102119.72;5060255;28;46576;-74
2023/09/24 00:15:42;;;;;;;;;26.25;22.75;;;;;14.37;100.00;102123.22;5068550;28;45417;-72
2023/09/24 00:18:07;;;;;;;;;25.75;24.50;;;;;14.35;100.00;102126.72;5057922;28;54846;-73
2023/09/24 00:20:34;;;;;;;;;30.00;26.00;;;;;14.35;100.00;102132.03;5064431;28;45325;-72
2023/09/24 00:22:59;;;;;;;;;23.50;21.25;;;;;14.32;100.00;102134.63;5072132;27;69970;-75
2023/09/24 00:25:26;;;;;;;;;26.25;25.25;;;;;14.31;100.00;102139.06;5069038;27;45281;-72
2023/09/24 00:27:51;;;;;;;;;27.75;27.50;;;;;14.28;100.00;102139.03;5061459;28;45441;-72
2023/09/24 00:30:16;;;;;;;;;27.00;24.75;;;;;14.28;100.00;102143.44;5066422;28;45286;-73
2023/09/24 00:32:42;;;;;;;;;24.50;24.25;;;;;14.28;100.00;102147.00;5060169;28;56387;-72
2023/09/24 00:35:08;;;;;;;;;24.25;23.75;;;;;14.25;100.00;102148.69;5062677;28;45299;-75
2023/09/24 00:37:33;;;;;;;;;29.50;27.25;;;;;14.25;100.00;102156.66;5061745;28;45496;-73
2023/09/24 00:39:59;;;;;;;;;25.50;23.75;;;;;14.23;100.00;102150.44;5065082;28;45649;-73
2023/09/24 00:42:31;;;;;;;;;27.75;24.00;;;;;14.23;100.00;102150.44;5063501;28;68963;-73
2023/09/24 00:44:56;;;;;;;;;35.50;26.75;;;;;14.20;100.00;102155.69;5065722;27;45521;-72
2023/09/24 00:47:22;;;;;;;;;26.00;26.00;;;;;14.18;100.00;102160.97;5059347;28;45443;-75
2023/09/24 00:49:48;;;;;;;;;27.75;26.75;;;;;14.16;100.00;102150.31;5064859;28;45477;-74
2023/09/24 00:52:14;;;;;;;;;37.00;26.00;;;;;14.16;100.00;102152.06;5058147;28;45315;-74
2023/09/24 00:54:40;;;;;;;;;28.75;23.50;;;;;14.16;100.00;102152.06;5070371;28;45450;-74
2023/09/24 00:57:06;;;;;;;;;26.00;24.25;;;;;14.16;100.00;102149.41;5058352;28;60076;-72
2023/09/24 00:59:31;;;;;;;;;28.00;24.25;;;;;14.14;100.00;102152.06;5069638;28;45432;-75
2023/09/24 01:01:58;;;;;;;;;31.75;26.00;;;;;14.12;100.00;102152.91;5066163;28;69581;-74
2023/09/24 01:04:23;;;;;;;;;33.25;30.00;;;;;14.15;100.00;102148.53;5062855;28;45481;-72
2023/09/24 01:06:49;;;;;;;;;34.75;25.25;;;;;14.15;100.00;102148.53;5064572;28;46022;-72
2023/09/24 01:09:16;;;;;;;;;29.25;24.50;;;;;14.11;100.00;102143.13;5067641;28;47181;-73
2023/09/24 01:11:41;;;;;;;;;29.25;24.25;;;;;14.07;100.00;102139.53;5064159;28;46780;-73
2023/09/24 01:14:07;;;;;;;;;33.50;27.00;;;;;14.04;100.00;102142.13;5059980;28;69214;-72
2023/09/24 01:16:33;;;;;;;;;36.25;29.25;;;;;14.04;100.00;102139.47;5065002;28;45342;-73
2023/09/24 01:18:58;;;;;;;;;26.50;23.50;;;;;14.04;100.00;102139.47;5059294;27;45448;-73
2023/09/24 01:21:26;;;;;;;;;28.25;26.50;;;;;14.04;100.00;102139.47;5062778;28;64456;-72
2023/09/24 01:23:51;;;;;;;;;27.75;25.50;;;;;14.01;100.00;102141.16;5067451;28;45382;-74
2023/09/24 01:26:18;;;;;;;;;26.50;24.25;;;;;13.99;100.00;102146.47;5059054;28;61876;-74
2023/09/24 01:28:44;;;;;;;;;34.50;28.50;;;;;13.97;100.00;102144.66;5058691;28;45330;-75
2023/09/24 01:31:09;;;;;;;;;27.00;24.75;;;;;13.95;100.00;102157.00;5063361;28;46786;-72
2023/09/24 01:33:39;;;;;;;;;28.00;25.75;;;;;13.96;100.00;102154.41;5066895;28;45422;-75
2023/09/24 01:36:07;;;;;;;;;28.25;24.75;;;;;13.92;100.00;102144.56;5063414;28;45412;-73
2023/09/24 01:38:32;;;;;;;;;26.50;24.75;;;;;13.91;100.00;102155.19;5059255;28;45459;-72
2023/09/24 01:40:59;;;;;;;;;28.25;25.00;;;;;13.89;100.00;102156.03;5065065;27;45755;-72
2023/09/24 01:43:24;;;;;;;;;24.75;22.25;;;;;13.88;100.00;102161.31;5061189;28;45595;-72
2023/09/24 01:45:50;;;;;;;;;27.00;25.75;;;;;13.88;100.00;102156.00;5071510;28;45443;-72
2023/09/24 01:48:18;;;;;;;;;27.50;24.25;;;;;13.87;100.00;102155.09;5069199;27;45483;-75
2023/09/24 01:50:44;;;;;;;;;29.50;24.75;;;;;13.89;100.00;102152.47;5071051;28;46451;-72
2023/09/24 01:53:10;;;;;;;;;27.25;18.50;;;;;13.85;100.00;102156.84;5069257;27;45304;-72
2023/09/24 01:55:38;;;;;;;;;23.25;22.50;;;;;13.86;100.00;102157.75;5063340;27;45296;-72
2023/09/24 01:58:04;;;;;;;;;28.50;23.00;;;;;13.81;100.00;102151.47;5064213;28;46640;-75
2023/09/24 02:00:30;;;;;;;;;25.50;22.50;;;;;13.81;100.00;102156.75;5057913;27;47277;-73
2023/09/24 02:02:59;;;;;;;;;29.00;26.00;;;;;13.79;100.00;102151.41;5063209;28;45434;-72
2023/09/24 02:05:30;;;;;;;;;24.75;22.00;;;;;13.78;100.00;102156.69;5056245;28;45522;-71
2023/09/24 02:07:56;;;;;;;;;27.00;21.75;;;;;13.75;100.00;102151.34;5058918;28;45477;-74
2023/09/24 02:10:21;;;;;;;;;20.50;19.50;;;;;13.74;100.00;102154.84;5062688;28;45560;-72
2023/09/24 02:12:47;;;;;;;;;24.00;23.50;;;;;13.72;100.00;102157.47;5057855;28;45601;-71
2023/09/24 02:15:18;;;;;;;;;26.50;23.25;;;;;13.71;100.00;102165.41;5062549;28;45362;-72
2023/09/24 02:17:45;;;;;;;;;24.50;21.25;;;;;13.71;100.00;102160.09;5057624;28;45434;-72
2023/09/24 02:20:25;;;;;;;;;26.50;22.75;;;;;13.69;100.00;102159.16;5064678;28;45787;-74
2023/09/24 02:22:52;;;;;;;;;24.50;24.50;;;;;13.65;100.00;102163.53;5068828;28;45323;-72
2023/09/24 02:25:20;;;;;;;;;30.00;24.50;;;;;13.68;100.00;102163.56;5066917;28;45318;-72
2023/09/24 02:27:50;;;;;;;;;24.75;22.00;;;;;13.67;100.00;102160.91;5065693;28;45619;-75
2023/09/24 02:30:15;;;;;;;;;29.00;21.50;;;;;13.67;100.00;102171.53;5061114;28;47433;-71
2023/09/24 02:32:42;;;;;;;;;23.25;23.25;;;;;13.66;100.00;102157.34;5058546;28;45531;-72
2023/09/24 02:35:11;;;;;;;;;29.50;25.50;;;;;13.63;100.00;102155.56;5064432;28;45366;-72
2023/09/24 02:37:40;;;;;;;;;25.00;22.25;;;;;13.63;100.00;102160.84;5057110;28;45365;-73
2023/09/24 02:40:14;;;;;;;;;25.00;23.75;;;;;13.59;100.00;102161.66;5050151;28;45756;-72
2023/09/24 02:42:41;;;;;;;;;26.75;24.25;;;;;13.59;100.00;102163.41;5058271;28;45372;-72
2023/09/24 02:45:08;;;;;;;;;25.50;23.25;;;;;13.57;100.00;102159.81;5059449;28;45423;-72
2023/09/24 02:47:34;;;;;;;;;29.25;20.75;;;;;13.56;100.00;102166.00;5059251;28;45433;-72
2023/09/24 02:49:59;;;;;;;;;26.50;24.50;;;;;13.55;100.00;102167.75;5060157;28;45697;-72
2023/09/24 02:52:25;;;;;;;;;27.00;23.25;;;;;13.54;100.00;102167.75;5066071;28;56825;-72
2023/09/24 02:54:50;;;;;;;;;30.50;26.50;;;;;13.55;100.00;102166.88;5068531;27;66419;-72
2023/09/24 02:57:15;;;;;;;;;27.50;21.25;;;;;13.56;100.00;102171.31;5057087;28;47831;-72
2023/09/24 02:59:41;;;;;;;;;23.75;22.75;;;;;13.53;100.00;102172.16;5057805;28;45777;-74
2023/09/24 03:02:06;;;;;;;;;27.75;22.50;;;;;13.54;100.00;102176.59;5070933;27;65244;-72
2023/09/24 03:04:32;;;;;;;;;25.25;22.75;;;;;13.48;100.00;102165.84;5061404;27;45406;-72
2023/09/24 03:06:57;;;;;;;;;24.50;21.00;;;;;13.48;100.00;102171.16;5059236;28;50382;-72
2023/09/24 03:09:23;;;;;;;;;28.25;23.00;;;;;13.49;100.00;102170.28;5061207;28;57390;-72
2023/09/24 03:11:49;;;;;;;;;27.50;21.50;;;;;13.50;100.00;102169.44;5058780;28;47004;-75
2023/09/24 03:14:14;;;;;;;;;22.25;22.25;;;;;13.48;100.00;102165.84;5062891;28;61588;-71
2023/09/24 03:16:39;;;;;;;;;25.50;21.75;;;;;13.48;100.00;102159.66;5058751;28;62192;-71
2023/09/24 03:19:05;;;;;;;;;22.00;22.00;;;;;13.48;100.00;102154.34;5061151;28;69439;-72
2023/09/24 03:21:30;;;;;;;;;21.00;19.50;;;;;13.48;100.00;102171.16;5070111;27;61763;-71
2023/09/24 03:23:55;;;;;;;;;27.50;23.75;;;;;13.46;100.00;102167.56;5065363;28;45153;-74
2023/09/24 03:26:21;;;;;;;;;23.50;21.75;;;;;13.46;100.00;102167.56;5057224;28;45461;-71
2023/09/24 03:28:48;;;;;;;;;26.75;24.75;;;;;13.48;100.00;102175.59;5055740;28;68653;-73
2023/09/24 03:31:14;;;;;;;;;28.00;24.25;;;;;13.46;100.00;102178.19;5060362;28;45516;-71
2023/09/24 03:33:39;;;;;;;;;26.00;23.75;;;;;13.45;100.00;102178.16;5056283;28;45220;-72
2023/09/24 03:36:07;;;;;;;;;25.00;23.25;;;;;13.40;100.00;102185.13;5064878;28;45422;-75
2023/09/24 03:38:33;;;;;;;;;23.50;22.00;;;;;13.41;100.00;102184.25;5056277;28;48685;-72
2023/09/24 03:40:59;;;;;;;;;28.75;24.00;;;;;13.39;100.00;102191.28;5056565;28;45367;-74
2023/09/24 03:43:24;;;;;;;;;25.50;22.75;;;;;13.37;100.00;102183.31;5064178;28;62789;-72
2023/09/24 03:45:49;;;;;;;;;24.25;22.25;;;;;13.34;100.00;102178.81;5062965;28;63928;-72
2023/09/24 03:48:15;;;;;;;;;26.75;22.50;;;;;13.39;100.00;102180.69;5065316;27;68949;-73
2023/09/24 03:50:40;;;;;;;;;24.25;22.50;;;;;13.40;100.00;102180.72;5056168;28;45269;-73
2023/09/24 03:53:05;;;;;;;;;21.75;21.50;;;;;13.39;100.00;102168.31;5060620;28;45339;-72
2023/09/24 03:55:31;;;;;;;;;23.75;22.00;;;;;13.38;100.00;102176.25;5056761;28;60186;-72
2023/09/24 03:57:56;;;;;;;;;27.75;24.75;;;;;13.34;100.00;102186.78;5060163;28;46173;-72
2023/09/24 04:00:22;;;;;;;;;26.50;23.50;;;;;13.35;100.00;102185.91;5057912;28;51938;-73
2023/09/24 04:02:49;;;;;;;;;27.00;25.00;;;;;13.33;100.00;102195.59;5052316;28;45341;-72
2023/09/24 04:05:17;;;;;;;;;23.75;20.75;;;;;13.33;100.00;102195.59;5058059;28;45480;-73
2023/09/24 04:07:44;;;;;;;;;26.75;19.00;;;;;13.35;100.00;102198.28;5062603;28;46588;-72
2023/09/24 04:10:14;;;;;;;;;30.75;22.00;;;;;13.36;100.00;102193.00;5065885;27;45655;-72
2023/09/24 04:12:39;;;;;;;;;27.50;25.00;;;;;13.32;100.00;102190.28;5057487;28;45553;-72
2023/09/24 04:15:06;;;;;;;;;26.00;23.00;;;;;13.32;100.00;102188.50;5056173;28;45470;-76
2023/09/24 04:17:31;;;;;;;;;23.25;22.25;;;;;13.33;100.00;102190.31;5055585;28;46944;-73
2023/09/24 04:19:57;;;;;;;;;26.00;23.50;;;;;13.36;100.00;102192.09;5057170;28;45513;-72
2023/09/24 04:22:24;;;;;;;;;27.75;26.00;;;;;13.33;100.00;102181.44;5060021;28;45297;-71
2023/09/24 04:24:54;;;;;;;;;26.75;23.75;;;;;13.35;100.00;102185.03;5058927;28;45374;-75
2023/09/24 04:27:20;;;;;;;;;27.25;23.25;;;;;13.33;100.00;102192.06;5065188;28;45869;-72
2023/09/24 04:29:46;;;;;;;;;26.25;24.50;;;;;13.32;100.00;102191.16;5062220;27;45422;-73
2023/09/24 04:32:11;;;;;;;;;25.00;25.00;;;;;13.32;100.00;102177.91;5055942;28;45524;-72
2023/09/24 04:34:37;;;;;;;;;31.00;23.00;;;;;13.30;100.00;102181.38;5062213;28;45429;-72
2023/09/24 04:37:02;;;;;;;;;25.75;22.25;;;;;13.34;100.00;102183.22;5055187;28;67239;-72
2023/09/24 04:39:28;;;;;;;;;22.00;19.75;;;;;13.31;100.00;102176.09;5067087;28;45307;-73
2023/09/24 04:41:54;;;;;;;;;33.25;25.50;;;;;13.40;100.00;102188.66;5067026;27;45354;-72
2023/09/24 04:44:19;;;;;;;;;22.00;20.00;;;;;13.39;100.00;102183.34;5066326;28;60654;-73
2023/09/24 04:46:44;;;;;;;;;24.00;18.50;;;;;13.38;100.00;102184.22;5065316;28;47334;-74
2023/09/24 04:49:10;;;;;;;;;22.25;22.00;;;;;13.38;100.00;102187.75;5060600;28;45304;-72
2023/09/24 04:51:35;;;;;;;;;25.25;20.25;;;;;13.38;100.00;102178.91;5062598;28;63977;-72
2023/09/24 04:54:01;;;;;;;;;24.50;20.00;;;;;13.36;100.00;102176.19;5055782;28;45441;-72
2023/09/24 04:56:30;;;;;;;;;19.25;19.25;;;;;13.38;100.00;102184.22;5057875;28;45669;-72
2023/09/24 04:58:55;;;;;;;;;23.00;21.00;;;;;13.40;100.00;102183.34;5063887;28;45425;-72
2023/09/24 05:01:20;;;;;;;;;26.50;21.75;;;;;13.37;100.00;102188.63;5068245;28;45731;-74
2023/09/24 05:03:49;;;;;;;;;21.00;19.00;;;;;13.38;100.00;102185.09;5058857;28;45548;-72
2023/09/24 05:06:14;;;;;;;;;27.50;22.50;;;;;13.37;100.00;102185.97;5062431;28;46546;-72
2023/09/24 05:08:40;;;;;;;;;27.25;24.00;;;;;13.34;100.00;102192.09;5066755;28;68084;-72
2023/09/24 05:11:05;;;;;;;;;22.75;20.75;;;;;13.35;100.00;102187.66;5059207;28;45335;-72
2023/09/24 05:13:30;;;;;;;;;24.75;19.25;;;;;13.31;100.00;102189.34;5061754;28;45608;-72
2023/09/24 05:16:00;;;;;;;;;22.75;22.75;;;;;13.30;100.00;102182.25;5070906;28;45690;-72
2023/09/24 05:18:26;;;;;;;;;26.00;20.75;;;;;13.26;100.00;102188.38;5063171;27;45607;-74
2023/09/24 05:20:51;;;;;;;;;25.50;21.50;;;;;13.27;100.00;102194.59;5063886;28;45419;-74
2023/09/24 05:23:17;;;;;;;;;19.75;18.25;;;;;13.25;100.00;102191.88;5066537;28;62861;-73
2023/09/24 05:25:42;;;;;;;;;13.50;13.50;;;;;13.25;100.00;102191.00;5061591;27;46245;-72
2023/09/24 05:28:07;;;;;;;;;21.75;19.25;;;;;13.23;100.00;102190.06;5071146;28;45529;-72
2023/09/24 05:30:33;;;;;;;;;23.50;19.25;;;;;13.23;100.00;102184.75;5058075;28;68130;-73
2023/09/24 05:32:58;;;;;;;;;17.25;15.50;;;;;13.22;100.00;102193.59;5058466;28;45335;-72
2023/09/24 05:35:24;;;;;;;;;20.00;19.00;;;;;13.22;100.00;102197.13;5059675;28;71479;-72
2023/09/24 05:37:50;;;;;;;;;22.00;19.00;;;;;13.21;100.00;102195.34;5063578;28;68018;-71
2023/09/24 05:40:15;;;;;;;;;22.50;20.50;;;;;13.22;100.00;102201.53;5062826;28;45448;-74
2023/09/24 05:42:41;;;;;;;;;29.00;18.50;;;;;13.20;100.00;102197.91;5062848;28;45501;-72
2023/09/24 05:45:07;;;;;;;;;21.00;19.50;;;;;13.22;100.00;102190.94;5061388;27;47445;-72
2023/09/24 05:47:33;;;;;;;;;23.75;21.50;;;;;13.29;100.00;102195.50;5058171;28;45284;-71
2023/09/24 05:49:59;;;;;;;;;20.50;17.75;;;;;13.28;100.00;102204.34;5057756;28;45494;-72
2023/09/24 05:52:24;;;;;;;;;27.00;20.25;;;;;13.27;100.00;102202.53;5066265;28;45717;-72
2023/09/24 05:54:49;;;;;;;;;20.25;18.75;;;;;13.28;100.00;102205.22;5052385;28;45598;-75
2023/09/24 05:57:15;;;;;;;;;21.50;17.25;;;;;13.28;100.00;102207.88;5063191;28;67721;-75
2023/09/24 05:59:40;;;;;;;;;21.00;20.00;;;;;13.29;100.00;102212.31;5063181;27;62683;-72
2023/09/24 06:02:06;;;;;;;;;18.00;17.75;;;;;13.29;100.00;102212.31;5062796;27;61681;-72
2023/09/24 06:04:31;;;;;;;;;22.75;18.00;;;;;13.30;100.00;102213.22;5057940;28;46506;-73
2023/09/24 06:06:56;;;;;;;;;20.25;15.75;;;;;13.33;100.00;102208.88;5062422;28;58177;-74
2023/09/24 06:09:22;;;;;;;;;18.25;17.00;;;;;13.34;100.00;102209.75;5065908;28;53043;-71
2023/09/24 06:11:49;;;;;;;;;21.00;16.00;;;;;13.33;100.00;102211.53;5064689;28;59919;-72
2023/09/24 06:14:14;;;;;;;;;17.25;15.00;;;;;13.35;100.00;102206.25;5067381;27;45606;-72
2023/09/24 06:16:39;;;;;;;;;24.50;17.75;;;;;13.36;100.00;102205.38;5065424;28;70377;-72
2023/09/24 06:19:05;;;;;;;;;22.00;18.75;;;;;13.41;100.00;102219.63;5059601;28;45498;-76
2023/09/24 06:21:31;;;;;;;;;16.25;15.25;;;;;13.43;100.00;102217.94;5060936;28;57786;-72
2023/09/24 06:23:57;;;;;;;;;14.67;14.00;;;;;13.47;100.00;102221.53;5064084;28;46356;-73
2023/09/24 06:26:23;;;;;;;;;15.00;14.00;;;;;13.51;100.00;102231.34;5060401;28;45348;-74
2023/09/24 06:28:49;;;;;;;;;19.00;17.00;;;;;13.55;100.00;102236.75;5059335;28;45563;-74
2023/09/24 06:31:14;;;;;;;;;21.00;15.50;;;;;13.58;100.00;102234.19;5057163;28;62358;-73
2023/09/24 06:33:39;;;;;;;;;19.25;17.00;;;;;13.61;100.00;102236.88;5056285;28;71762;-75
2023/09/24 06:36:05;;;;;;;;;14.67;11.67;;;;;13.63;100.00;102236.91;5056586;28;68255;-72
2023/09/24 06:38:32;;;;;;;;;10.00;10.00;;;;;13.68;100.00;102237.00;5063838;28;45537;-73
2023/09/24 06:41:02;;;;;;;;;12.00;8.00;;;;;13.70;100.00;102246.81;5059494;28;45314;-71
2023/09/24 06:43:28;;;;;;;;;10.33;7.67;;;;;13.77;100.00;102242.50;5064756;28;46644;-73
2023/09/24 06:45:57;;;;;;;;;9.67;6.67;;;;;13.84;100.00;102241.75;5066318;28;45180;-71
2023/09/24 06:48:22;;;;;;;;;7.67;6.67;;;;;13.91;100.00;102256.09;5071299;27;45357;-72
2023/09/24 06:50:48;;;;;;;;;6.00;6.00;;;;;13.97;100.00;102241.16;5057652;28;45295;-73
2023/09/24 06:53:14;;;;;;;;;14.67;8.67;;;;;14.01;100.00;102247.41;5058265;28;46378;-71
2023/09/24 06:55:40;;;;;;;;;6.67;5.00;;;;;14.11;100.00;102249.38;5057985;28;46987;-73
2023/09/24 06:58:05;;;;;;;;;11.00;5.33;;;;;14.20;100.00;102240.69;5059659;28;45371;-72
2023/09/24 07:00:31;;;;;;;;;3.00;3.00;;;;;14.26;100.00;102239.03;5057026;28;45608;-75
2023/09/24 07:02:56;;;;;;;;;6.67;6.67;;;;;14.34;100.00;102240.09;5066264;28;45621;-73
2023/09/24 07:05:22;;;;;;;;;11.00;5.33;;;;;14.42;100.00;102235.78;5062500;28;49727;-73
2023/09/24 07:07:47;;;;;;;;;7.33;4.67;;;;;14.46;100.00;102234.09;5066572;28;45438;-71
2023/09/24 07:10:13;;;;;;;;;6.00;5.67;;;;;14.52;100.00;102231.56;5062698;28;45368;-73
2023/09/24 07:12:39;;;;;;;;;5.00;3.00;;;;;14.56;100.00;102233.41;5060205;27;51494;-74
2023/09/24 07:15:05;;;;;;;;;6.67;3.67;;;;;14.66;100.00;102245.09;5061382;28;45530;-73
2023/09/24 07:17:31;;;;;;;;;8.00;6.67;;;;;14.73;100.00;102238.13;5070759;27;45279;-73
2023/09/24 07:19:56;;;;;;;;;4.67;4.67;;;;;14.78;100.00;102236.44;5051340;28;57821;-71
2023/09/24 07:22:26;;;;;;;;;6.67;5.00;;;;;14.83;100.00;102227.66;5067800;28;46175;-71
2023/09/24 07:24:52;;;;;;;;;7.00;6.00;;;;;14.87;100.00;102240.13;5064387;28;45134;-73
2023/09/24 07:27:17;;;;;;;;;13.00;6.00;;;;;14.92;100.00;102237.56;5061049;27;45666;-73
2023/09/24 07:29:44;;;;;;;;;7.00;4.00;;;;;14.97;100.00;102235.88;5055922;28;60899;-71
2023/09/24 07:32:10;;;;;;;;;9.00;5.67;;;;;15.07;100.00;102231.56;5059715;28;46892;-71
2023/09/24 07:34:35;;;;;;;;;9.33;6.00;;;;;15.15;100.00;102227.25;5058144;28;67640;-72
2023/09/24 07:37:01;;;;;;;;;5.00;5.00;;;;;15.19;100.00;102232.66;5059007;28;45325;-71
2023/09/24 07:39:26;;;;;;;;;6.00;6.00;;;;;15.26;100.00;102227.41;5059174;27;45590;-71
2023/09/24 07:41:51;;;;;;;;;6.67;5.67;;;;;15.29;100.00;102236.34;5057226;27;68876;-73
2023/09/24 07:44:18;;;;;;;;;6.00;5.00;;;;;15.33;100.00;102231.94;5063150;28;68663;-71
2023/09/24 07:46:44;;;;;;;;;5.33;4.00;;;;;15.38;100.00;102238.22;5067064;27;45459;-74
2023/09/24 07:49:09;;;;;;;;;7.67;6.67;;;;;15.44;100.00;102239.19;5055179;28;45652;-72
2023/09/24 07:51:34;;;;;;;;;9.67;4.33;;;;;15.49;100.00;102239.25;5055485;28;67568;-72
2023/09/24 07:54:00;;;;;;;;;6.33;5.00;;;;;15.52;100.00;102243.72;5059836;28;45467;-72
2023/09/24 07:56:25;;;;;;;;;14.00;12.00;;;;;15.62;100.00;102243.88;5059958;28;45445;-71
2023/09/24 07:58:51;;;;;;;;;19.00;14.33;;;;;15.65;100.00;102249.25;5058529;27;59240;-72
2023/09/24 08:01:20;;;;;;;;;8.33;7.00;;;;;15.72;100.00;102239.59;5055945;28;46409;-74
2023/09/24 08:03:47;;;;;;;;;7.33;5.00;;;;;15.79;100.00;102235.22;5059501;28;45374;-72
2023/09/24 08:06:12;;;;;;;;;5.67;4.67;;;;;15.80;100.00;102226.34;5065541;28;45390;-72
2023/09/24 08:08:38;;;;;;;;;5.00;5.00;;;;;15.84;100.00;102226.41;5065228;27;45437;-74
2023/09/24 08:11:03;;;;;;;;;19.33;15.00;;;;;15.92;100.00;102231.81;5061999;28;62435;-71
2023/09/24 08:13:29;;;;;;;;;13.67;13.67;;;;;15.96;100.00;102236.31;5056440;28;45431;-73
2023/09/24 08:15:57;;;;;;;;;6.00;4.67;;;;;15.99;100.00;102231.03;5190465;22;45613;-71
2023/09/24 08:18:26;;;;;;;;;7.33;4.00;;;;;16.06;100.00;102238.22;5072993;28;45387;-74
2023/09/24 08:20:53;;;;;;;;;5.00;5.00;;;;;16.15;100.00;102234.75;5073721;28;46612;-72
2023/09/24 08:23:20;;;;;;;;;5.67;4.00;;;;;16.25;100.00;102228.66;5075426;27;45466;-76
2023/09/24 08:25:45;;;;;;;;;5.67;4.00;;;;;16.29;100.00;102230.44;5075721;27;45434;-72
2023/09/24 08:28:11;;;;;;;;;8.33;6.00;;;;;16.34;100.00;102223.38;5075238;28;45341;-72
2023/09/24 08:30:36;;;;;;;;;7.33;4.00;;;;;16.40;100.00;102226.09;5075921;27;46349;-71
2023/09/24 08:33:04;;;;;;;;;6.00;4.00;;;;;16.44;100.00;102238.59;5077725;27;70843;-73
2023/09/24 08:35:29;;;;;;;;;3.00;3.00;;;;;16.50;100.00;102235.09;5075538;28;45475;-72
2023/09/24 08:37:54;;;;;;;;;6.67;4.33;;;;;16.58;100.00;102236.06;5078592;27;45322;-71
2023/09/24 08:40:20;;;;;;;;;5.00;4.00;;;;;16.63;100.00;102229.00;5076665;27;67718;-72
2023/09/24 08:42:47;;;;;;;;;5.67;4.67;;;;;16.72;100.00;102223.78;5079080;27;45393;-71
2023/09/24 08:45:19;;;;;;;;;7.67;6.00;;;;;16.81;100.00;102233.59;5078313;28;45295;-71
2023/09/24 08:47:47;;;;;;;;;5.67;2.33;;;;;16.88;100.00;102223.84;5079503;27;45283;-74
2023/09/24 08:50:14;;;;;;;;;6.00;3.00;;;;;16.95;100.00;102220.38;5077957;27;47508;-71
2023/09/24 08:52:44;;;;;;;;;6.00;3.00;;;;;16.99;100.00;102220.41;5079390;27;45353;-72
2023/09/24 08:55:10;;;;;;;;;4.00;3.00;;;;;17.07;100.00;102203.53;5078908;27;45307;-73
2023/09/24 08:57:41;;;;;;;;;4.33;4.33;;;;;17.14;100.00;102221.38;5079153;27;45481;-74
2023/09/24 09:00:11;;;;;;;;;3.00;2.33;;;;;17.20;100.00;102210.72;5078238;27;47323;-71
2023/09/24 09:02:40;;;;;;;;;4.33;4.33;;;;;17.27;100.00;102209.91;5078298;27;45643;-71
2023/09/24 09:05:09;;;;;;;;;3.00;3.00;;;;;17.40;100.00;102205.50;5078861;27;45511;-75
2023/09/24 09:07:35;;;;;;;;;5.00;3.00;;;;;17.42;100.00;102190.41;5078475;27;45564;-71
2023/09/24 09:10:03;;;;;;;;;5.00;3.67;;;;;17.50;100.00;102193.97;5077804;27;45703;-71
2023/09/24 09:12:28;;;;;;;;;2.33;2.00;;;;;17.56;100.00;102199.34;5077816;27;45358;-71
2023/09/24 09:14:55;;;;;;;;;4.33;4.00;;;;;17.62;100.00;102183.34;5079041;27;45355;-71
2023/09/24 09:17:21;;;;;;;;;4.00;4.00;;;;;17.70;100.00;102178.94;5078087;27;45604;-73
2023/09/24 09:19:52;;;;;;;;;6.67;2.33;;;;;17.80;100.00;102185.22;5075928;28;45848;-73
2023/09/24 09:22:27;;;;;;;;;5.00;5.00;;;;;17.89;100.00;102195.03;5077967;27;45228;-71
2023/09/24 09:25:04;;;;;;;;;10.00;7.00;;;;;17.97;100.00;102190.59;5078517;27;45321;-71
2023/09/24 09:27:37;;;;;;;;;5.00;4.00;;;;;18.02;100.00;102179.03;5076923;28;45501;-71
2023/09/24 09:30:17;;;;;;;;;2.33;2.33;;;;;18.12;100.00;102179.06;5077721;27;45897;-74
2023/09/24 09:32:43;;;;;;;;;4.33;4.00;;;;;18.19;100.00;102184.41;5078019;28;45476;-73
2023/09/24 09:35:09;;;;;;;;;8.67;5.00;;;;;18.26;100.00;102179.94;5078521;27;45453;-72
2023/09/24 09:37:35;;;;;;;;;4.00;4.00;;;;;18.33;100.00;102166.59;5076446;28;45408;-75
2023/09/24 09:40:00;;;;;;;;;4.33;3.33;;;;;18.39;100.00;102163.03;5074553;28;45319;-71
2023/09/24 09:42:35;;;;;;;;;3.33;2.67;;;;;18.40;100.00;102179.97;5077677;28;45478;-71
2023/09/24 09:45:07;;;;;;;;;7.00;5.00;;;;;18.48;100.00;102164.78;5077833;27;45437;-71
2023/09/24 09:47:34;;;;;;;;;4.33;1.33;;;;;18.58;100.00;102161.22;5078562;27;45635;-71
2023/09/24 09:50:00;;;;;;;;;4.33;3.00;;;;;18.67;100.00;102152.31;5074414;28;46453;-72
2023/09/24 09:52:41;;;;;;;;;3.00;3.00;;;;;18.75;100.00;102147.84;5078209;27;45313;-72
2023/09/24 09:55:07;;;;;;;;;4.00;2.00;;;;;18.84;100.00;102146.06;5077790;27;45370;-71
2023/09/24 09:57:33;;;;;;;;;4.00;2.67;;;;;18.91;100.00;102148.72;5078022;27;45407;-71
2023/09/24 10:00:09;;;;;;;;;2.33;2.33;;;;;18.98;100.00;102148.72;5077234;27;46565;-71
2023/09/24 10:02:35;;;;;;;;;4.00;3.00;;;;;19.06;100.00;102133.50;5073454;28;45558;-71
2023/09/24 10:05:01;;;;;;;;;5.33;3.00;;;;;19.12;100.00;102129.91;5077377;27;45523;-73
2023/09/24 10:07:26;;;;;;;;;4.00;2.67;;;;;19.16;100.00;102123.66;5076091;28;57918;-71
2023/09/24 10:09:52;;;;;;;;;3.67;3.67;;;;;19.26;100.00;102130.75;5076376;28;68292;-72
2023/09/24 10:12:37;;;;;;;;;3.00;3.00;;;;;19.37;100.00;102120.88;5077640;27;45436;-71
2023/09/24 10:15:27;;;;;;;;;10.00;2.67;;;;;19.43;100.00;102108.34;5077748;27;45437;-71
2023/09/24 10:18:17;;;;;;;;;3.33;3.00;;;;;19.53;100.00;102099.38;5075729;28;45704;-71
2023/09/24 10:20:48;;;;;;;;;3.00;3.00;;;;;19.61;100.00;102093.13;5076533;28;47064;-71
2023/09/24 10:23:28;;;;;;;;;3.67;2.33;;;;;19.71;100.00;102093.03;5077190;27;45537;-74
2023/09/24 10:25:56;;;;;;;;;4.00;2.33;;;;;19.79;100.00;102094.78;5077276;27;45556;-71
2023/09/24 10:28:21;;;;;;;;;2.33;2.33;;;;;19.89;100.00;102085.75;5077575;27;45469;-72
2023/09/24 10:31:21;;;;;;;;;4.33;3.67;;;;;19.98;100.00;102074.09;5077053;27;45991;-71
2023/09/24 10:33:58;;;;;;;;;3.00;2.00;;;;;20.08;100.00;102069.50;5075912;28;45454;-71
2023/09/24 10:36:33;;;;;;;;;1.00;1.00;;;;;20.17;100.00;102079.28;5076761;28;45440;-75
2023/09/24 10:39:14;;;;;;;;;4.67;3.33;;;;;20.25;100.00;102067.59;5050082;28;45694;-72
2023/09/24 10:42:11;;;;;;;;;2.00;2.00;;;;;20.36;100.00;102073.75;5075700;28;46571;-74
2023/09/24 10:44:37;;;;;;;;;1.67;1.00;;;;;20.41;100.00;102071.03;5075715;28;45557;-74
2023/09/24 10:47:29;;;;;;;;;2.33;2.33;;;;;20.49;100.00;102058.44;5077018;27;45300;-72
2023/09/24 10:50:06;;;;;;;;;2.00;2.00;;;;;20.54;100.00;102043.19;5076887;27;45456;-71
2023/09/24 10:52:50;;;;;;;;;2.00;2.00;;;;;20.60;100.00;102040.41;5069817;28;46213;-71
2023/09/24 10:55:19;;;;;;;;;4.67;2.33;;;;;20.66;100.00;102043.03;5076213;27;45378;-71
2023/09/24 10:57:52;;;;;;;;;0.00;0.00;;;;;20.79;100.00;102042.91;5077588;27;45509;-74
2023/09/24 11:00:20;;;;;;;;;4.00;1.33;;;;;20.89;100.00;102040.09;5076862;27;45131;-73
2023/09/24 11:02:45;;;;;;;;;1.33;1.33;;;;;20.99;100.00;102038.19;5076265;27;47543;-73
2023/09/24 11:05:11;;;;;;;;;2.00;2.00;;;;;21.11;100.00;102040.69;5077021;27;45314;-73
2023/09/24 11:07:36;;;;;;;;;5.00;2.00;;;;;21.24;100.00;102037.84;5076614;27;45235;-74